sensor_id;sensor_type;location;lat;lon;timestamp;P1;durP1;ratioP1;P2;durP2;ratioP2
63406;SDS011;49543;45.892;10.838;2024-01-15T09:06:03;15.75;;;10.95;;
63406;SDS011;49543;45.892;10.838;2024-01-15T09:08:45;18.08;;;10.65;;
63406;SDS011;49543;45.892;10.838;2024-01-15T09:11:11;21.90;;;13.73;;
63406;SDS011;49543;45.892;10.838;2024-01-15T09:13:39;18.25;;;12.65;;
63406;SDS011;49543;45.892;10.838;2024-01-15T09:16:05;18.35;;;12.70;;
63406;SDS011;49543;45.892;10.838;2024-01-15T09:18:30;20.90;;;12.98;;
63406;SDS011;49543;45.892;10.838;2024-01-15T09:21:06;17.27;;;12.32;;
63406;SDS011;49543;45.892;10.838;2024-01-15T09:23:37;20.50;;;13.00;;
63406;SDS011;49543;45.892;10.838;2024-01-15T09:26:15;18.27;;;11.98;;
63406;SDS011;49543;45.892;10.838;2024-01-15T09:28:53;16.83;;;11.32;;
63406;SDS011;49543;45.892;10.838;2024-01-15T09:31:41;18.20;;;11.90;;
63406;SDS011;49543;45.892;10.838;2024-01-15T09:34:26;18.63;;;11.68;;
63406;SDS011;49543;45.892;10.838;2024-01-15T09:42:56;15.98;;;11.13;;
63406;SDS011;49543;45.892;10.838;2024-01-15T09:45:21;15.88;;;11.30;;
63406;SDS011;49543;45.892;10.838;2024-01-15T09:47:47;15.30;;;10.25;;
63406;SDS011;49543;45.892;10.838;2024-01-15T09:50:57;12.55;;;9.32;;
63406;SDS011;49543;45.892;10.838;2024-01-15T09:53:48;14.88;;;9.52;;
63406;SDS011;49543;45.892;10.838;2024-01-15T09:58:54;13.13;;;9.30;;
63406;SDS011;49543;45.892;10.838;2024-01-15T10:01:50;12.25;;;8.30;;
63406;SDS011;49543;45.892;10.838;2024-01-15T10:09:38;13.15;;;9.63;;
63406;SDS011;49543;45.892;10.838;2024-01-15T10:12:11;13.25;;;8.50;;
63406;SDS011;49543;45.892;10.838;2024-01-15T10:14:37;14.70;;;10.07;;
63406;SDS011;49543;45.892;10.838;2024-01-15T10:17:18;12.18;;;9.07;;
63406;SDS011;49543;45.892;10.838;2024-01-15T10:19:49;12.73;;;9.10;;
63406;SDS011;49543;45.892;10.838;2024-01-15T10:22:14;12.82;;;8.73;;
63406;SDS011;49543;45.892;10.838;2024-01-15T10:35:47;12.93;;;8.97;;
63406;SDS011;49543;45.892;10.838;2024-01-15T10:38:13;14.73;;;9.82;;
63406;SDS011;49543;45.892;10.838;2024-01-15T10:40:39;13.27;;;8.82;;
63406;SDS011;49543;45.892;10.838;2024-01-15T10:43:04;12.98;;;8.90;;
63406;SDS011;49543;45.892;10.838;2024-01-15T10:45:30;12.70;;;9.00;;
63406;SDS011;49543;45.892;10.838;2024-01-15T10:47:55;13.30;;;8.52;;
63406;SDS011;49543;45.892;10.838;2024-01-15T10:50:23;15.80;;;8.43;;
63406;SDS011;49543;45.892;10.838;2024-01-15T10:52:49;12.35;;;9.18;;
63406;SDS011;49543;45.892;10.838;2024-01-15T10:55:16;12.55;;;8.95;;
63406;SDS011;49543;45.892;10.838;2024-01-15T10:57:42;13.13;;;9.20;;
63406;SDS011;49543;45.892;10.838;2024-01-15T11:00:10;16.45;;;9.32;;
63406;SDS011;49543;45.892;10.838;2024-01-15T11:02:39;13.05;;;9.57;;
63406;SDS011;49543;45.892;10.838;2024-01-15T11:05:07;13.10;;;8.20;;
63406;SDS011;49543;45.892;10.838;2024-01-15T11:07:33;10.25;;;7.70;;
63406;SDS011;49543;45.892;10.838;2024-01-15T11:09:58;11.48;;;7.75;;
63406;SDS011;49543;45.892;10.838;2024-01-15T11:12:24;10.05;;;7.82;;
63406;SDS011;49543;45.892;10.838;2024-01-15T11:14:50;15.70;;;9.10;;
63406;SDS011;49543;45.892;10.838;2024-01-15T11:17:17;10.48;;;8.85;;
63406;SDS011;49543;45.892;10.838;2024-01-15T11:19:47;11.73;;;8.60;;
63406;SDS011;49543;45.892;10.838;2024-01-15T11:22:57;10.55;;;8.65;;
63406;SDS011;49543;45.892;10.838;2024-01-15T11:25:13;13.10;;;9.07;;
63406;SDS011;49543;45.892;10.838;2024-01-15T11:27:40;11.85;;;8.88;;
63406;SDS011;49543;45.892;10.838;2024-01-15T11:32:36;12.18;;;8.45;;
63406;SDS011;49543;45.892;10.838;2024-01-15T11:35:01;14.15;;;8.57;;
63406;SDS011;49543;45.892;10.838;2024-01-15T11:37:29;11.55;;;8.00;;
63406;SDS011;49543;45.892;10.838;2024-01-15T11:40:17;10.55;;;8.23;;
63406;SDS011;49543;45.892;10.838;2024-01-15T11:42:44;10.30;;;8.00;;
63406;SDS011;49543;45.892;10.838;2024-01-15T11:45:10;10.57;;;8.57;;
63406;SDS011;49543;45.892;10.838;2024-01-15T11:47:53;10.55;;;7.63;;
63406;SDS011;49543;45.892;10.838;2024-01-15T11:50:33;11.65;;;8.23;;
63406;SDS011;49543;45.892;10.838;2024-01-15T11:53:00;11.05;;;7.85;;
63406;SDS011;49543;45.892;10.838;2024-01-15T11:55:33;9.48;;;7.80;;
63406;SDS011;49543;45.892;10.838;2024-01-15T11:58:10;12.60;;;9.43;;
63406;SDS011;49543;45.892;10.838;2024-01-15T12:00:47;14.02;;;9.85;;
63406;SDS011;49543;45.892;10.838;2024-01-15T12:09:10;12.48;;;8.77;;
63406;SDS011;49543;45.892;10.838;2024-01-15T12:11:39;11.75;;;8.77;;
63406;SDS011;49543;45.892;10.838;2024-01-15T12:14:10;11.77;;;8.82;;
63406;SDS011;49543;45.892;10.838;2024-01-15T12:16:55;9.82;;;8.27;;
63406;SDS011;49543;45.892;10.838;2024-01-15T12:19:21;14.35;;;10.10;;
63406;SDS011;49543;45.892;10.838;2024-01-15T12:22:06;12.75;;;9.27;;
63406;SDS011;49543;45.892;10.838;2024-01-15T12:24:53;13.13;;;9.57;;
63406;SDS011;49543;45.892;10.838;2024-01-15T12:31:12;11.63;;;8.70;;
63406;SDS011;49543;45.892;10.838;2024-01-15T12:33:38;12.48;;;9.65;;
63406;SDS011;49543;45.892;10.838;2024-01-15T12:36:04;14.45;;;9.90;;
63406;SDS011;49543;45.892;10.838;2024-01-15T12:38:29;12.98;;;10.10;;
63406;SDS011;49543;45.892;10.838;2024-01-15T12:40:55;11.73;;;9.38;;
63406;SDS011;49543;45.892;10.838;2024-01-15T12:43:21;12.07;;;8.80;;
63406;SDS011;49543;45.892;10.838;2024-01-15T12:45:46;15.55;;;9.65;;
63406;SDS011;49543;45.892;10.838;2024-01-15T17:38:30;17.83;;;10.67;;
63406;SDS011;49543;45.892;10.838;2024-01-15T17:40:55;19.38;;;11.85;;
63406;SDS011;49543;45.892;10.838;2024-01-15T17:43:22;18.38;;;11.35;;
63406;SDS011;49543;45.892;10.838;2024-01-15T17:45:48;19.15;;;11.75;;
63406;SDS011;49543;45.892;10.838;2024-01-15T17:48:13;19.67;;;11.95;;
63406;SDS011;49543;45.892;10.838;2024-01-15T17:50:39;46.47;;;20.90;;
63406;SDS011;49543;45.892;10.838;2024-01-15T17:53:04;41.42;;;19.58;;
63406;SDS011;49543;45.892;10.838;2024-01-15T17:55:30;32.72;;;17.23;;
63406;SDS011;49543;45.892;10.838;2024-01-15T17:57:58;34.78;;;16.90;;
63406;SDS011;49543;45.892;10.838;2024-01-15T18:00:24;27.83;;;15.02;;
63406;SDS011;49543;45.892;10.838;2024-01-15T18:02:50;36.40;;;17.90;;
63406;SDS011;49543;45.892;10.838;2024-01-15T18:05:15;28.48;;;14.77;;
63406;SDS011;49543;45.892;10.838;2024-01-15T18:07:41;25.75;;;13.82;;
63406;SDS011;49543;45.892;10.838;2024-01-15T18:10:07;22.00;;;12.48;;
63406;SDS011;49543;45.892;10.838;2024-01-15T18:12:35;22.67;;;12.88;;
63406;SDS011;49543;45.892;10.838;2024-01-15T18:15:01;28.20;;;14.93;;
63406;SDS011;49543;45.892;10.838;2024-01-15T18:17:31;28.55;;;14.68;;
63406;SDS011;49543;45.892;10.838;2024-01-15T18:20:00;32.10;;;16.77;;
63406;SDS011;49543;45.892;10.838;2024-01-15T18:22:26;29.95;;;16.92;;
63406;SDS011;49543;45.892;10.838;2024-01-15T18:24:51;30.95;;;15.95;;
63406;SDS011;49543;45.892;10.838;2024-01-15T18:27:18;25.58;;;15.65;;
63406;SDS011;49543;45.892;10.838;2024-01-15T18:29:44;21.38;;;13.88;;
63406;SDS011;49543;45.892;10.838;2024-01-15T18:32:09;26.23;;;15.05;;
63406;SDS011;49543;45.892;10.838;2024-01-15T18:34:35;26.15;;;16.17;;
63406;SDS011;49543;45.892;10.838;2024-01-15T18:37:01;26.40;;;15.60;;
63406;SDS011;49543;45.892;10.838;2024-01-15T18:39:27;31.70;;;17.23;;
63406;SDS011;49543;45.892;10.838;2024-01-15T18:41:52;31.17;;;18.10;;
63406;SDS011;49543;45.892;10.838;2024-01-15T18:44:18;28.42;;;14.80;;
63406;SDS011;49543;45.892;10.838;2024-01-15T18:46:48;23.38;;;14.65;;
63406;SDS011;49543;45.892;10.838;2024-01-15T18:49:13;28.80;;;16.75;;
63406;SDS011;49543;45.892;10.838;2024-01-15T18:51:39;30.90;;;17.83;;
63406;SDS011;49543;45.892;10.838;2024-01-15T18:54:06;31.35;;;17.35;;
63406;SDS011;49543;45.892;10.838;2024-01-15T18:56:31;25.90;;;16.52;;
63406;SDS011;49543;45.892;10.838;2024-01-15T18:59:00;26.17;;;15.55;;
63406;SDS011;49543;45.892;10.838;2024-01-15T19:01:30;24.92;;;16.15;;
63406;SDS011;49543;45.892;10.838;2024-01-15T19:04:02;27.48;;;16.13;;
63406;SDS011;49543;45.892;10.838;2024-01-15T19:06:28;26.13;;;16.63;;
63406;SDS011;49543;45.892;10.838;2024-01-15T19:08:53;23.00;;;14.20;;
63406;SDS011;49543;45.892;10.838;2024-01-15T19:11:20;26.45;;;15.02;;
63406;SDS011;49543;45.892;10.838;2024-01-15T19:13:47;27.55;;;16.02;;
63406;SDS011;49543;45.892;10.838;2024-01-15T19:16:15;21.92;;;14.55;;
63406;SDS011;49543;45.892;10.838;2024-01-15T19:18:46;25.98;;;15.65;;
63406;SDS011;49543;45.892;10.838;2024-01-15T19:21:15;23.88;;;14.68;;
63406;SDS011;49543;45.892;10.838;2024-01-15T19:23:40;26.08;;;15.07;;
63406;SDS011;49543;45.892;10.838;2024-01-15T19:26:06;24.30;;;16.50;;
63406;SDS011;49543;45.892;10.838;2024-01-15T19:28:32;25.90;;;16.08;;
63406;SDS011;49543;45.892;10.838;2024-01-15T19:30:57;25.85;;;16.77;;
63406;SDS011;49543;45.892;10.838;2024-01-15T19:33:24;71.57;;;28.08;;
63406;SDS011;49543;45.892;10.838;2024-01-15T19:35:50;48.05;;;25.20;;
63406;SDS011;49543;45.892;10.838;2024-01-15T19:38:16;37.03;;;20.70;;
63406;SDS011;49543;45.892;10.838;2024-01-15T19:40:41;34.55;;;21.08;;
63406;SDS011;49543;45.892;10.838;2024-01-15T19:43:08;30.85;;;18.33;;
63406;SDS011;49543;45.892;10.838;2024-01-15T19:45:35;28.35;;;17.27;;
63406;SDS011;49543;45.892;10.838;2024-01-15T19:48:01;28.33;;;16.35;;
63406;SDS011;49543;45.892;10.838;2024-01-15T19:50:26;24.73;;;15.80;;
63406;SDS011;49543;45.892;10.838;2024-01-15T19:52:52;22.67;;;15.70;;
63406;SDS011;49543;45.892;10.838;2024-01-15T19:55:17;25.88;;;16.52;;
63406;SDS011;49543;45.892;10.838;2024-01-15T19:57:43;24.45;;;16.73;;
63406;SDS011;49543;45.892;10.838;2024-01-15T20:00:08;29.63;;;16.98;;
63406;SDS011;49543;45.892;10.838;2024-01-15T20:02:34;22.25;;;15.75;;
63406;SDS011;49543;45.892;10.838;2024-01-15T20:05:00;27.02;;;17.27;;
63406;SDS011;49543;45.892;10.838;2024-01-15T20:07:26;19.02;;;14.40;;
63406;SDS011;49543;45.892;10.838;2024-01-15T20:09:51;23.75;;;14.30;;
63406;SDS011;49543;45.892;10.838;2024-01-15T20:12:18;15.38;;;11.52;;
63406;SDS011;49543;45.892;10.838;2024-01-15T20:14:44;18.05;;;11.68;;
63406;SDS011;49543;45.892;10.838;2024-01-15T20:17:09;24.70;;;13.90;;
63406;SDS011;49543;45.892;10.838;2024-01-15T20:19:35;25.35;;;14.60;;
63406;SDS011;49543;45.892;10.838;2024-01-15T20:22:00;25.05;;;15.27;;
63406;SDS011;49543;45.892;10.838;2024-01-15T20:24:26;22.05;;;15.43;;
63406;SDS011;49543;45.892;10.838;2024-01-15T20:26:51;24.85;;;15.73;;
63406;SDS011;49543;45.892;10.838;2024-01-15T20:29:17;26.63;;;15.40;;
63406;SDS011;49543;45.892;10.838;2024-01-15T20:31:43;25.85;;;14.88;;
63406;SDS011;49543;45.892;10.838;2024-01-15T20:34:09;22.88;;;14.57;;
63406;SDS011;49543;45.892;10.838;2024-01-15T20:36:35;27.63;;;16.35;;
63406;SDS011;49543;45.892;10.838;2024-01-15T20:39:00;25.67;;;15.35;;
63406;SDS011;49543;45.892;10.838;2024-01-15T20:41:27;26.40;;;14.77;;
63406;SDS011;49543;45.892;10.838;2024-01-15T20:43:53;25.58;;;14.80;;
63406;SDS011;49543;45.892;10.838;2024-01-15T20:46:18;19.10;;;13.13;;
63406;SDS011;49543;45.892;10.838;2024-01-15T20:48:44;20.35;;;12.50;;
63406;SDS011;49543;45.892;10.838;2024-01-15T20:51:10;19.45;;;12.73;;
63406;SDS011;49543;45.892;10.838;2024-01-15T20:53:35;22.05;;;11.98;;
63406;SDS011;49543;45.892;10.838;2024-01-15T20:56:01;26.05;;;14.48;;
63406;SDS011;49543;45.892;10.838;2024-01-15T20:58:26;23.67;;;14.57;;
63406;SDS011;49543;45.892;10.838;2024-01-15T21:00:52;24.17;;;16.00;;
63406;SDS011;49543;45.892;10.838;2024-01-15T21:03:19;22.23;;;14.45;;
63406;SDS011;49543;45.892;10.838;2024-01-15T21:05:45;28.13;;;15.70;;
63406;SDS011;49543;45.892;10.838;2024-01-15T21:08:10;16.40;;;11.65;;
63406;SDS011;49543;45.892;10.838;2024-01-15T21:10:36;19.20;;;11.40;;
63406;SDS011;49543;45.892;10.838;2024-01-15T21:13:01;19.65;;;12.38;;
63406;SDS011;49543;45.892;10.838;2024-01-15T21:15:27;20.08;;;11.93;;
63406;SDS011;49543;45.892;10.838;2024-01-15T21:17:52;16.45;;;10.90;;
63406;SDS011;49543;45.892;10.838;2024-01-15T21:20:18;16.00;;;9.10;;
63406;SDS011;49543;45.892;10.838;2024-01-15T21:22:43;14.15;;;9.05;;
63406;SDS011;49543;45.892;10.838;2024-01-15T21:25:09;13.40;;;9.35;;
63406;SDS011;49543;45.892;10.838;2024-01-15T21:27:35;16.75;;;10.77;;
63406;SDS011;49543;45.892;10.838;2024-01-15T21:30:04;16.20;;;10.80;;
63406;SDS011;49543;45.892;10.838;2024-01-15T21:32:30;17.35;;;9.90;;
63406;SDS011;49543;45.892;10.838;2024-01-15T21:34:55;17.25;;;11.07;;
63406;SDS011;49543;45.892;10.838;2024-01-15T21:37:21;17.40;;;11.20;;
63406;SDS011;49543;45.892;10.838;2024-01-15T21:39:46;19.85;;;10.65;;
63406;SDS011;49543;45.892;10.838;2024-01-15T21:42:12;17.27;;;11.13;;
63406;SDS011;49543;45.892;10.838;2024-01-15T21:44:38;18.35;;;10.85;;
63406;SDS011;49543;45.892;10.838;2024-01-15T21:47:04;16.58;;;11.25;;
63406;SDS011;49543;45.892;10.838;2024-01-15T21:49:31;19.23;;;11.05;;
63406;SDS011;49543;45.892;10.838;2024-01-15T21:51:56;17.23;;;10.38;;
63406;SDS011;49543;45.892;10.838;2024-01-15T21:54:22;17.20;;;11.10;;
63406;SDS011;49543;45.892;10.838;2024-01-15T21:56:48;17.02;;;11.27;;
63406;SDS011;49543;45.892;10.838;2024-01-15T21:59:13;16.85;;;11.60;;
63406;SDS011;49543;45.892;10.838;2024-01-15T22:01:39;18.48;;;12.15;;
63406;SDS011;49543;45.892;10.838;2024-01-15T22:04:05;16.98;;;11.05;;
63406;SDS011;49543;45.892;10.838;2024-01-15T22:06:32;16.42;;;10.73;;
63406;SDS011;49543;45.892;10.838;2024-01-15T22:09:00;19.08;;;11.70;;
63406;SDS011;49543;45.892;10.838;2024-01-15T22:11:26;16.02;;;11.50;;
63406;SDS011;49543;45.892;10.838;2024-01-15T22:13:52;18.98;;;12.38;;
63406;SDS011;49543;45.892;10.838;2024-01-15T22:16:18;22.00;;;13.65;;
63406;SDS011;49543;45.892;10.838;2024-01-15T22:18:43;22.30;;;12.98;;
63406;SDS011;49543;45.892;10.838;2024-01-15T22:21:09;20.77;;;13.02;;
63406;SDS011;49543;45.892;10.838;2024-01-15T22:23:35;24.17;;;13.88;;
63406;SDS011;49543;45.892;10.838;2024-01-15T22:26:00;24.13;;;14.30;;
63406;SDS011;49543;45.892;10.838;2024-01-15T22:28:28;19.48;;;12.77;;
63406;SDS011;49543;45.892;10.838;2024-01-15T22:30:54;20.23;;;13.48;;
63406;SDS011;49543;45.892;10.838;2024-01-15T22:33:19;20.02;;;12.07;;
63406;SDS011;49543;45.892;10.838;2024-01-15T22:35:45;20.60;;;12.25;;
63406;SDS011;49543;45.892;10.838;2024-01-15T22:38:10;24.00;;;14.32;;
63406;SDS011;49543;45.892;10.838;2024-01-15T22:40:36;21.02;;;13.35;;
63406;SDS011;49543;45.892;10.838;2024-01-15T22:43:01;20.92;;;12.88;;
63406;SDS011;49543;45.892;10.838;2024-01-15T22:45:28;20.88;;;13.25;;
63406;SDS011;49543;45.892;10.838;2024-01-15T22:47:53;19.00;;;12.90;;
63406;SDS011;49543;45.892;10.838;2024-01-15T22:50:18;15.25;;;10.52;;
63406;SDS011;49543;45.892;10.838;2024-01-15T22:52:44;15.85;;;11.27;;
63406;SDS011;49543;45.892;10.838;2024-01-15T22:55:10;17.75;;;11.45;;
63406;SDS011;49543;45.892;10.838;2024-01-15T22:57:35;17.92;;;10.95;;
63406;SDS011;49543;45.892;10.838;2024-01-15T23:00:01;16.40;;;10.43;;
63406;SDS011;49543;45.892;10.838;2024-01-15T23:02:28;15.80;;;10.00;;
63406;SDS011;49543;45.892;10.838;2024-01-15T23:04:53;18.80;;;11.38;;
63406;SDS011;49543;45.892;10.838;2024-01-15T23:07:19;19.23;;;11.15;;
63406;SDS011;49543;45.892;10.838;2024-01-15T23:09:45;22.23;;;14.15;;
63406;SDS011;49543;45.892;10.838;2024-01-15T23:12:10;24.35;;;14.13;;
63406;SDS011;49543;45.892;10.838;2024-01-15T23:14:36;36.35;;;18.73;;
63406;SDS011;49543;45.892;10.838;2024-01-15T23:17:01;42.42;;;22.13;;
63406;SDS011;49543;45.892;10.838;2024-01-15T23:19:27;24.17;;;13.82;;
63406;SDS011;49543;45.892;10.838;2024-01-15T23:21:53;23.83;;;12.95;;
63406;SDS011;49543;45.892;10.838;2024-01-15T23:24:18;21.27;;;11.63;;
63406;SDS011;49543;45.892;10.838;2024-01-15T23:26:43;18.60;;;11.77;;
63406;SDS011;49543;45.892;10.838;2024-01-15T23:29:09;36.10;;;19.67;;
63406;SDS011;49543;45.892;10.838;2024-01-15T23:31:38;55.33;;;24.17;;
63406;SDS011;49543;45.892;10.838;2024-01-15T23:34:05;35.28;;;17.30;;
63406;SDS011;49543;45.892;10.838;2024-01-15T23:36:30;37.22;;;18.88;;
63406;SDS011;49543;45.892;10.838;2024-01-15T23:38:56;55.33;;;24.20;;
63406;SDS011;49543;45.892;10.838;2024-01-15T23:41:22;62.08;;;25.70;;
63406;SDS011;49543;45.892;10.838;2024-01-15T23:43:47;41.38;;;19.52;;
